Time;durP1;ratioP1;P1;durP2;ratioP2;P2;SDS_P1;SDS_P2;PMS_P1;PMS_P2;Temp;Humidity;BMP_temperature;BMP_pressure;BME280_temperature;BME280_humidity;BME280_pressure;Samples;Min_cycle;Max_cycle;Signal;HPM_P1;HPM_P2
2021/01/28 05:34:30;;;;;;;1.10;1.10;;;10.50;99.90;;;;;;4810932;24;20061;-86
2021/01/28 05:37:08;;;;;;;1.30;1.15;;;;;;;;;;4798380;29;20063;-85
2021/01/28 05:40:09;;;;;;;2.00;1.40;;;10.60;99.90;;;;;;4801198;29;20051;-89
2021/01/28 05:42:42;;;;;;;3.42;1.35;;;;;;;;;;4765775;29;20066;-87
2021/01/28 05:45:39;;;;;;;4.93;1.73;;;10.70;99.90;;;;;;4812714;29;20563;-87
2021/01/28 05:48:59;;;;;;;1.40;1.30;;;10.60;99.90;;;;;;4801544;29;20066;-88
2021/01/28 05:51:55;;;;;;;1.67;1.45;;;11.00;99.90;;;;;;4775747;29;20069;-87
2021/01/28 05:55:08;;;;;;;1.55;1.27;;;10.70;99.90;;;;;;4794262;29;20046;-88
2021/01/28 05:58:25;;;;;;;1.35;1.25;;;10.80;99.90;;;;;;4791553;29;20059;-88
2021/01/28 06:01:13;;;;;;;2.05;1.30;;;10.80;99.90;;;;;;4800745;29;20610;-86
2021/01/28 06:04:07;;;;;;;2.25;1.60;;;10.80;99.90;;;;;;4799510;29;20647;-84
2021/01/28 06:07:19;;;;;;;1.27;1.17;;;;;;;;;;4785561;29;20059;-87
2021/01/28 06:10:04;;;;;;;1.20;1.10;;;;;;;;;;4781348;29;20311;-86
2021/01/28 06:13:19;;;;;;;1.98;1.77;;;10.90;99.90;;;;;;4815082;29;20070;-87
2021/01/28 06:16:04;;;;;;;1.83;1.48;;;11.00;99.90;;;;;;4802967;29;20055;-88
2021/01/28 06:19:18;;;;;;;3.45;1.73;;;11.10;99.90;;;;;;4796321;29;20059;-85
2021/01/28 06:22:51;;;;;;;2.90;2.55;;;11.00;99.90;;;;;;4801923;29;20054;-88
2021/01/28 06:25:56;;;;;;;1.70;1.60;;;9.30;99.90;;;;;;4798999;29;20051;-87
2021/01/28 06:28:48;;;;;;;1.95;1.20;;;11.10;99.90;;;;;;4803235;29;20058;-86
2021/01/28 06:31:44;;;;;;;2.05;1.23;;;11.20;99.90;;;;;;4794525;29;20055;-85
2021/01/28 06:34:48;;;;;;;0.90;0.90;;;11.20;99.90;;;;;;4789365;29;20051;-89
2021/01/28 06:38:12;;;;;;;1.23;1.00;;;11.30;99.90;;;;;;4802547;29;20059;-86
2021/01/28 06:41:18;;;;;;;1.60;1.25;;;11.40;99.90;;;;;;4778634;29;20130;-86
2021/01/28 06:44:03;;;;;;;1.35;1.25;;;;;;;;;;4777875;30;20062;-85
2021/01/28 06:47:18;;;;;;;1.65;1.48;;;11.30;99.90;;;;;;4795835;29;20460;-85
2021/01/28 06:50:22;;;;;;;1.93;1.30;;;11.40;99.90;;;;;;4784490;30;20059;-88
2021/01/28 06:53:01;;;;;;;1.33;1.23;;;;;;;;;;4780985;29;20067;-90
2021/01/28 06:56:08;;;;;;;1.73;1.50;;;11.60;99.90;;;;;;4783449;29;20051;-86
2021/01/28 06:59:42;;;;;;;7.93;1.58;;;11.40;99.90;;;;;;4786913;30;20067;-87
2021/01/28 07:02:30;;;;;;;1.83;1.58;;;11.30;99.90;;;;;;4793275;29;20534;-87
2021/01/28 07:05:01;;;;;;;3.65;1.35;;;;;;;;;;4786464;30;20045;-88
2021/01/28 07:07:37;;;;;;;5.22;1.50;;;11.40;99.90;;;;;;4779197;29;20059;-86
2021/01/28 07:10:28;;;;;;;4.93;1.70;;;11.20;99.90;;;;;;4779668;29;20051;-91
2021/01/28 07:13:24;;;;;;;1.08;1.08;;;11.30;99.90;;;;;;4769911;30;20078;-86
2021/01/28 07:16:27;;;;;;;2.22;1.30;;;11.40;99.90;;;;;;4795079;29;20127;-86
2021/01/28 07:19:05;;;;;;;1.10;1.10;;;11.30;99.90;;;;;;4797626;29;20074;-87
2021/01/28 07:21:43;;;;;;;1.95;1.60;;;11.50;99.90;;;;;;4763943;30;20067;-89
2021/01/28 07:24:29;;;;;;;2.47;1.50;;;;;;;;;;4761013;30;20055;-87
2021/01/28 07:26:57;;;;;;;1.47;1.00;;;;;;;;;;4789403;29;20066;-85
2021/01/28 07:29:44;;;;;;;6.13;1.40;;;11.50;99.90;;;;;;4801810;29;20063;-86
2021/01/28 07:32:31;;;;;;;1.23;1.13;;;11.60;99.90;;;;;;4795393;29;20816;-88
2021/01/28 07:35:25;;;;;;;1.35;1.25;;;;;;;;;;4769409;30;20076;-86
2021/01/28 07:38:35;;;;;;;5.07;2.83;;;11.10;99.90;;;;;;4773209;30;20065;-89
2021/01/28 07:41:29;;;;;;;3.33;1.20;;;11.60;99.90;;;;;;4790841;29;20058;-87
2021/01/28 07:44:39;;;;;;;3.85;1.45;;;11.60;99.90;;;;;;4774813;29;20064;-88
2021/01/28 07:47:31;;;;;;;2.63;1.10;;;;;;;;;;4772751;29;20055;-87
2021/01/28 07:50:36;;;;;;;2.65;1.33;;;11.50;99.90;;;;;;4781646;30;20051;-86
2021/01/28 07:53:35;;;;;;;8.90;2.28;;;11.60;99.90;;;;;;4791961;29;20059;-86
2021/01/28 07:56:03;;;;;;;3.50;1.45;;;;;;;;;;4777623;30;20067;-88
2021/01/28 07:58:36;;;;;;;1.17;1.00;;;11.40;99.90;;;;;;4773117;29;20055;-87
2021/01/28 08:01:13;;;;;;;8.30;1.38;;;11.70;99.90;;;;;;4778993;29;20431;-86
2021/01/28 08:04:26;;;;;;;1.40;1.30;;;11.50;99.90;;;;;;4784688;30;20580;-89
2021/01/28 08:07:09;;;;;;;4.25;2.42;;;11.70;99.90;;;;;;4782678;29;20063;-90
2021/01/28 08:10:37;;;;;;;2.20;1.25;;;11.70;99.90;;;;;;4759259;30;20058;-88
2021/01/28 08:13:21;;;;;;;1.35;1.20;;;;;;;;;;4776953;29;20362;-89
2021/01/28 08:16:09;;;;;;;3.95;1.17;;;11.60;99.90;;;;;;4791726;29;20070;-89
2021/01/28 08:18:40;;;;;;;1.48;1.38;;;11.70;99.90;;;;;;4765213;30;20059;-89
2021/01/28 08:21:22;;;;;;;1.30;1.20;;;11.70;99.90;;;;;;4761917;30;20059;-88
2021/01/28 08:24:08;;;;;;;1.10;1.00;;;11.80;99.90;;;;;;4776386;30;20059;-89
2021/01/28 08:26:43;;;;;;;2.03;1.23;;;11.70;99.90;;;;;;4764075;30;20066;-87
2021/01/28 08:29:33;;;;;;;2.03;1.08;;;;;;;;;;4828542;24;20070;-88
2021/01/28 08:32:34;;;;;;;1.58;1.08;;;11.60;99.90;;;;;;4808976;24;20055;-88
2021/01/28 08:35:55;;;;;;;1.40;1.10;;;;;;;;;;4808021;24;20022;-89
2021/01/28 08:39:39;;;;;;;1.08;1.02;;;;;;;;;;4800714;29;20507;-91
2021/01/28 08:43:01;;;;;;;2.85;1.23;;;;;;;;;;4802894;24;20063;-89
2021/01/28 08:46:23;;;;;;;1.73;1.40;;;11.80;99.90;;;;;;4805021;29;20071;-89
2021/01/28 08:49:23;;;;;;;2.08;1.38;;;;;;;;;;4809754;29;20087;-90
2021/01/28 08:52:28;;;;;;;2.05;1.63;;;11.80;99.90;;;;;;4799373;29;20054;-90
2021/01/28 08:55:56;;;;;;;2.22;1.50;;;11.80;99.90;;;;;;4804682;29;20055;-91
2021/01/28 08:59:00;;;;;;;2.50;2.00;;;11.70;99.90;;;;;;4765673;29;20063;-91
2021/01/28 09:01:39;;;;;;;1.30;1.30;;;;;;;;;;4792698;30;20070;-91
2021/01/28 09:04:20;;;;;;;3.13;1.23;;;11.90;99.90;;;;;;4801417;29;20059;-90
2021/01/28 09:06:59;;;;;;;2.10;1.10;;;;;;;;;;4784998;29;20062;-90
2021/01/28 09:10:06;;;;;;;4.38;1.55;;;;;;;;;;4803651;29;20062;-87
2021/01/28 09:12:55;;;;;;;2.28;1.30;;;;;;;;;;4813998;24;20066;-88
2021/01/28 09:16:22;;;;;;;4.50;1.00;;;11.90;99.90;;;;;;4819833;24;20039;-89
2021/01/28 09:19:29;;;;;;;2.53;1.10;;;11.90;99.90;;;;;;4788776;29;20077;-89
2021/01/28 09:26:30;;;;;;;3.25;1.20;;;11.90;99.90;;;;;;4787231;29;20061;-89
2021/01/28 09:32:37;;;;;;;2.05;1.70;;;;;;;;;;4081707;24;20050;-90
2021/01/28 09:35:35;;;;;;;4.18;1.35;;;;;;;;;;4827725;29;20041;-90
2021/01/28 09:38:26;;;;;;;4.00;1.40;;;12.00;99.90;;;;;;4818794;29;20043;-89
2021/01/28 09:41:47;;;;;;;5.40;1.57;;;12.10;99.90;;;;;;4823079;29;20428;-91
2021/01/28 09:45:23;;;;;;;6.57;1.70;;;;;;;;;;4811144;29;20058;-89
2021/01/28 09:48:15;;;;;;;6.07;2.53;;;12.10;99.90;;;;;;4820657;29;20065;-91
2021/01/28 09:51:37;;;;;;;9.88;3.65;;;12.20;99.90;;;;;;4800502;29;20067;-91
2021/01/28 09:55:06;;;;;;;6.55;2.28;;;12.30;99.90;;;;;;4799373;29;20058;-88
2021/01/28 09:58:22;;;;;;;14.68;2.30;;;;;;;;;;4822688;29;20532;-91
2021/01/28 10:01:21;;;;;;;13.07;2.58;;;;;;;;;;4820499;29;20059;-90
2021/01/28 10:04:14;;;;;;;6.72;2.25;;;12.40;99.90;;;;;;4807047;29;20055;-89
2021/01/28 10:06:58;;;;;;;13.98;3.70;;;;;;;;;;4888689;24;20045;-90
2021/01/28 10:10:14;;;;;;;20.10;4.90;;;;;;;;;;4756556;30;20060;-91
2021/01/28 10:13:05;;;;;;;15.18;4.57;;;;;;;;;;4755981;30;20285;-90
2021/01/28 10:16:13;;;;;;;15.90;4.10;;;;;;;;;;4729857;30;20056;-90
2021/01/28 10:19:01;;;;;;;9.55;3.38;;;;;;;;;;4776306;29;20060;-92
2021/01/28 10:21:48;;;;;;;12.70;4.10;;;;;;;;;;4764600;29;20064;-91
2021/01/28 10:24:59;;;;;;;9.35;2.53;;;;;;;;;;4805370;24;20054;-90
2021/01/28 10:28:04;;;;;;;17.33;3.42;;;;;;;;;;4785898;29;20062;-92
2021/01/28 10:31:16;;;;;;;16.20;3.38;;;;;;;;;;4795150;29;20056;-90
2021/01/28 10:34:18;;;;;;;10.85;5.15;;;;;;;;;;4774487;30;20070;-91
2021/01/28 10:37:21;;;;;;;32.25;3.83;;;;;;;;;;4770238;30;20068;-89
2021/01/28 10:40:37;;;;;;;23.75;4.50;;;;;;;;;;4774818;29;20056;-91
2021/01/28 10:43:29;;;;;;;14.38;3.20;;;;;;;;;;4741981;30;20044;-91
2021/01/28 10:50:27;;;;;;;18.07;3.67;;;;;;;;;;4739225;30;20054;-90
2021/01/28 10:53:49;;;;;;;14.18;3.22;;;;;;;;;;4763822;30;20054;-91
2021/01/28 12:23:22;;;;;;;17.83;4.80;;;;;;;;;;4118960;27;20043;-93
2021/01/28 12:30:04;;;;;;;20.05;5.78;;;;;;;;;;5176987;24;20043;-93
2021/01/28 12:42:48;;;;;;;27.75;9.25;;;;;;;;;;4142087;24;20036;-93
2021/01/28 12:55:33;;;;;;;24.42;6.82;;;;;;;;;;4872748;24;20054;-91
2021/01/28 12:58:32;;;;;;;28.02;6.03;;;;;;;;;;4814933;29;20035;-88
2021/01/28 13:04:53;;;;;;;19.63;4.93;;;13.20;99.90;;;;;;4799521;29;20052;-91
2021/01/28 13:07:53;;;;;;;35.50;5.80;;;;;;;;;;4758207;30;20058;-87
2021/01/28 13:11:10;;;;;;;16.83;5.38;;;;;;;;;;4773954;30;20044;-87
2021/01/28 13:13:49;;;;;;;26.77;5.85;;;;;;;;;;4775448;30;20049;-86
2021/01/28 13:16:55;;;;;;;28.42;8.32;;;;;;;;;;4774206;30;20078;-85
2021/01/28 13:19:30;;;;;;;18.10;5.78;;;13.10;99.90;;;;;;4840593;24;20051;-87
2021/01/28 13:22:16;;;;;;;27.30;5.10;;;;;;;;;;4818596;29;20051;-86
2021/01/28 13:24:49;;;;;;;22.23;6.30;;;;;;;;;;4822802;29;20058;-86
2021/01/28 13:27:29;;;;;;;;;;;13.10;99.90;;;;;;4799646;29;20051;-84
2021/01/28 13:30:09;;;;;;;31.42;8.15;;;13.10;99.90;;;;;;4827547;29;19913;-86
2021/01/28 13:32:37;;;;;;;34.37;7.27;;;;;;;;;;4809685;29;20073;-84
2021/01/28 13:35:15;;;;;;;34.67;10.35;;;13.10;99.90;;;;;;4808240;30;20047;-85
2021/01/28 13:37:49;;;;;;;21.27;6.20;;;;;;;;;;4789275;29;20073;-85
2021/01/28 13:40:26;;;;;;;25.83;9.10;;;;;;;;;;4810660;29;20047;-86
2021/01/28 13:43:32;;;;;;;25.50;5.40;;;;;;;;;;4810167;29;20046;-86
2021/01/28 13:46:04;;;;;;;24.38;6.32;;;;;;;;;;4828887;24;20039;-87
2021/01/28 13:48:48;;;;;;;26.10;5.53;;;;;;;;;;4761769;30;20073;-85
2021/01/28 13:51:17;;;;;;;11.73;3.85;;;;;;;;;;4774182;30;20070;-86
2021/01/28 13:53:50;;;;;;;23.38;5.78;;;;;;;;;;4790877;30;20051;-85
2021/01/28 13:56:26;;;;;;;19.88;5.18;;;;;;;;;;4787968;30;20052;-85
2021/01/28 13:59:01;;;;;;;20.15;5.45;;;;;;;;;;4783461;29;20055;-86
2021/01/28 14:01:51;;;;;;;16.88;4.85;;;;;;;;;;4857982;24;20059;-85
2021/01/28 14:04:44;;;;;;;19.85;5.05;;;;;;;;;;4817341;29;20051;-85
2021/01/28 14:07:18;;;;;;;44.00;12.00;;;;;;;;;;4832281;29;20046;-86
2021/01/28 14:10:13;;;;;;;28.35;5.85;;;;;;;;;;4815248;29;20047;-86
2021/01/28 14:12:53;;;;;;;22.20;6.47;;;;;;;;;;4818544;29;20046;-85
2021/01/28 14:15:28;;;;;;;22.65;6.40;;;13.20;99.90;;;;;;4815864;29;20050;-86
2021/01/28 14:18:00;;;;;;;25.98;5.90;;;;;;;;;;4806811;29;20043;-86
2021/01/28 14:20:32;;;;;;;31.08;10.20;;;;;;;;;;4833238;29;20057;-85
2021/01/28 14:23:06;;;;;;;25.48;5.63;;;;;;;;;;4805904;29;20074;-85
2021/01/28 14:25:37;;;;;;;12.98;4.80;;;;;;;;;;4827385;29;20039;-89
2021/01/28 14:28:11;;;;;;;31.10;8.50;;;;;;;;;;4825055;29;20054;-85
2021/01/28 14:30:42;;;;;;;18.73;5.50;;;;;;;;;;4827743;29;20034;-84
2021/01/28 14:33:14;;;;;;;28.55;5.65;;;;;;;;;;4822450;29;20075;-85
2021/01/28 14:35:46;;;;;;;23.05;5.30;;;13.50;99.90;;;;;;4795678;29;20047;-85
2021/01/28 14:42:44;;;;;;;14.57;4.20;;;;;;;;;;4814174;29;20061;-84
2021/01/28 14:46:20;;;;;;;17.10;6.32;;;;;;;;;;4800816;29;20047;-85
2021/01/28 14:49:24;;;;;;;23.95;7.05;;;13.70;99.90;;;;;;4812781;29;20078;-88
2021/01/28 14:51:54;;;;;;;24.23;6.63;;;;;;;;;;4777146;30;20059;-87
2021/01/28 14:57:49;;;;;;;21.90;7.70;;;;;;;;;;4799346;24;19925;-84
2021/01/28 15:00:18;;;;;;;18.95;6.55;;;;;;;;;;4796721;30;20056;-86
2021/01/28 15:02:46;;;;;;;19.98;8.35;;;;;;;;;;4791111;30;20054;-85
2021/01/28 15:05:15;;;;;;;27.48;6.70;;;14.70;99.90;;;;;;4796067;29;20059;-84
2021/01/28 15:07:44;;;;;;;21.50;5.95;;;;;;;;;;4791742;30;20059;-86
2021/01/28 15:10:16;;;;;;;34.67;5.57;;;;;;;;;;4794253;30;20454;-85
2021/01/28 15:12:58;;;;;;;21.52;7.10;;;;;;;;;;4791073;30;20066;-82
2021/01/28 15:15:28;;;;;;;26.02;9.35;;;;;;;;;;4789717;30;20051;-85
2021/01/28 15:17:56;;;;;;;21.80;5.22;;;;;;;;;;4790274;29;20059;-85
2021/01/28 15:20:27;;;;;;;14.73;4.45;;;;;;;;;;4793829;29;20051;-84
2021/01/28 15:22:56;;;;;;;21.27;5.82;;;;;;;;;;4794651;29;20063;-85
2021/01/28 15:25:31;;;;;;;18.60;4.72;;;13.60;99.90;;;;;;4792208;29;20063;-83
2021/01/28 15:28:01;;;;;;;19.63;4.82;;;;;;;;;;4778877;30;20063;-84
2021/01/28 15:30:31;;;;;;;16.45;4.35;;;;;;;;;;4775625;30;20059;-84
2021/01/28 15:33:00;;;;;;;29.33;8.82;;;;;;;;;;4780323;30;20060;-84
2021/01/28 15:35:30;;;;;;;23.92;7.72;;;;;;;;;;4791183;30;20070;-84
2021/01/28 15:37:59;;;;;;;;;;;13.40;99.90;;;;;;4790449;29;20048;-84
2021/01/28 15:40:28;;;;;;;28.40;7.65;;;;;;;;;;4788712;30;19925;-83
2021/01/28 15:43:01;;;;;;;12.55;5.07;;;;;;;;;;4797441;29;20055;-82
2021/01/28 15:45:29;;;;;;;16.67;3.85;;;;;;;;;;4792497;30;20055;-90
2021/01/28 15:48:03;;;;;;;10.32;3.65;;;13.70;99.90;;;;;;4788296;29;20340;-83
2021/01/28 15:50:36;;;;;;;15.35;5.15;;;;;;;;;;4796805;30;20062;-84
2021/01/28 15:53:07;;;;;;;18.48;3.58;;;;;;;;;;4794912;30;20067;-84
2021/01/28 15:55:38;;;;;;;16.77;4.03;;;;;;;;;;4774035;29;741298;-84
2021/01/28 15:58:07;;;;;;;20.45;4.88;;;;;;;;;;4779801;30;20055;-85
2021/01/28 16:00:38;;;;;;;15.68;4.25;;;;;;;;;;4764325;30;20070;-83
2021/01/28 16:03:17;;;;;;;17.40;5.47;;;;;;;;;;4774000;30;20067;-84
2021/01/28 16:05:49;;;;;;;16.83;4.72;;;13.30;99.90;;;;;;4777811;30;20060;-85
2021/01/28 16:08:24;;;;;;;10.77;3.20;;;;;;;;;;4800163;29;20052;-86
2021/01/28 16:10:56;;;;;;;13.20;3.28;;;13.20;99.90;;;;;;4767726;30;20081;-83
2021/01/28 16:13:27;;;;;;;14.60;4.15;;;;;;;;;;4774269;30;20075;-84
2021/01/28 16:16:20;;;;;;;27.08;4.65;;;;;;;;;;4771403;30;20043;-83
2021/01/28 16:18:52;;;;;;;16.35;4.00;;;;;;;;;;4780361;30;20066;-83
2021/01/28 16:21:23;;;;;;;16.05;5.55;;;;;;;;;;4758438;30;20513;-86
2021/01/28 16:23:58;;;;;;;12.65;3.13;;;;;;;;;;4759353;30;20496;-84
2021/01/28 16:26:27;;;;;;;15.93;2.92;;;;;;;;;;4782308;30;20059;-85
2021/01/28 16:28:57;;;;;;;20.00;4.82;;;;;;;;;;4758967;30;20503;-84
2021/01/28 16:31:29;;;;;;;7.68;2.55;;;;;;;;;;4771001;30;20056;-84
2021/01/28 16:33:58;;;;;;;6.80;2.72;;;;;;;;;;4766640;30;20055;-84
2021/01/28 16:36:27;;;;;;;10.00;2.10;;;;;;;;;;4750704;30;20052;-83
2021/01/28 16:38:57;;;;;;;18.88;5.57;;;;;;;;;;4756495;30;20408;-83
2021/01/28 16:41:37;;;;;;;7.63;1.90;;;12.80;99.90;;;;;;4757180;30;20067;-84
2021/01/28 16:44:05;;;;;;;5.50;2.03;;;;;;;;;;4758499;30;20071;-82
2021/01/28 16:46:39;;;;;;;7.57;2.70;;;;;;;;;;4743036;30;20064;-82
2021/01/28 16:49:11;;;;;;;12.43;2.53;;;;;;;;;;4767935;30;20052;-84
2021/01/28 16:51:42;;;;;;;12.82;2.30;;;12.30;99.90;;;;;;4766940;29;20059;-82
2021/01/28 16:54:13;;;;;;;9.30;2.55;;;12.10;99.90;;;;;;4760641;30;20067;-83
2021/01/28 16:56:44;;;;;;;10.93;2.95;;;;;;;;;;4754525;30;20060;-84
2021/01/28 16:59:14;;;;;;;8.10;3.05;;;;;;;;;;4767438;24;20047;-84
2021/01/28 17:01:43;;;;;;;8.63;3.10;;;;;;;;;;4780963;30;20055;-84
2021/01/28 17:04:15;;;;;;;15.20;5.65;;;;;;;;;;4786655;29;20074;-84
2021/01/28 17:06:43;;;;;;;19.33;5.30;;;12.10;99.90;;;;;;4780799;29;20039;-85
2021/01/28 17:09:14;;;;;;;11.07;3.45;;;;;;;;;;4779693;29;20084;-83
2021/01/28 17:11:44;;;;;;;17.40;5.75;;;;;;;;;;4781521;29;20072;-84
2021/01/28 17:14:17;;;;;;;11.27;3.45;;;12.00;99.90;;;;;;4785879;30;20066;-83
2021/01/28 17:16:48;;;;;;;19.05;6.03;;;;;;;;;;4788689;29;20066;-83
2021/01/28 17:19:16;;;;;;;23.15;5.80;;;;;;;;;;4788025;30;20407;-85
2021/01/28 17:21:46;;;;;;;13.10;4.22;;;;;;;;;;4782395;29;20059;-84
2021/01/28 17:24:16;;;;;;;15.55;5.90;;;;;;;;;;4794651;29;20067;-83
2021/01/28 17:26:52;;;;;;;17.02;5.32;;;;;;;;;;4774976;29;20055;-84
2021/01/28 17:29:20;;;;;;;25.50;5.38;;;;;;;;;;4783138;29;20447;-84
2021/01/28 17:31:58;;;;;;;27.17;4.30;;;;;;;;;;4784760;29;20063;-85
2021/01/28 17:34:28;;;;;;;15.98;4.55;;;;;;;;;;4784769;29;20058;-84
2021/01/28 17:36:58;;;;;;;17.38;3.97;;;;;;;;;;4775889;30;20083;-85
2021/01/28 17:39:25;;;;;;;17.35;4.50;;;;;;;;;;4781466;30;20058;-86
2021/01/28 17:41:53;;;;;;;20.90;4.93;;;;;;;;;;4783493;29;20064;-84
2021/01/28 17:44:23;;;;;;;15.02;4.30;;;;;;;;;;4777467;30;20070;-83
2021/01/28 17:46:51;;;;;;;21.08;4.53;;;;;;;;;;4795881;29;20078;-83
2021/01/28 17:49:20;;;;;;;17.23;5.28;;;;;;;;;;4791609;29;20066;-83
2021/01/28 17:51:53;;;;;;;24.35;7.25;;;;;;;;;;4799833;29;20447;-83
2021/01/28 17:54:23;;;;;;;11.45;4.78;;;;;;;;;;4796819;29;20432;-84
2021/01/28 17:56:54;;;;;;;11.32;4.80;;;;;;;;;;4777372;29;20070;-82
2021/01/28 17:59:27;;;;;;;15.55;5.50;;;11.60;99.90;;;;;;4795589;29;20071;-84
2021/01/28 18:01:55;;;;;;;13.30;4.85;;;;;;;;;;4779906;30;20048;-83
2021/01/28 18:04:27;;;;;;;18.73;5.20;;;;;;;;;;4789485;29;20062;-83
2021/01/28 18:06:56;;;;;;;22.20;6.28;;;;;;;;;;4773744;30;20059;-85
2021/01/28 18:09:25;;;;;;;16.88;5.55;;;;;;;;;;4789768;29;20066;-84
2021/01/28 18:11:56;;;;;;;14.50;3.85;;;;;;;;;;4768677;30;20086;-83
2021/01/28 18:14:38;;;;;;;29.38;5.85;;;12.10;99.90;;;;;;4796380;29;20061;-84
2021/01/28 18:17:10;;;;;;;15.75;5.90;;;;;;;;;;4775057;30;20068;-85
2021/01/28 18:19:44;;;;;;;17.85;4.47;;;;;;;;;;4790708;29;20066;-84
2021/01/28 18:22:12;;;;;;;18.50;5.70;;;;;;;;;;4774147;29;20062;-84
2021/01/28 18:24:43;;;;;;;17.33;5.22;;;11.70;99.90;;;;;;4794220;29;20054;-85
2021/01/28 18:27:11;;;;;;;25.17;6.20;;;;;;;;;;4789863;29;20066;-84
2021/01/28 18:29:47;;;;;;;17.17;4.97;;;;;;;;;;4788770;29;20054;-83
2021/01/28 18:32:15;;;;;;;15.63;4.88;;;;;;;;;;4806098;29;20058;-83
2021/01/28 18:34:45;;;;;;;14.18;4.28;;;;;;;;;;4775905;30;20055;-86
2021/01/28 18:37:13;;;;;;;14.10;4.38;;;;;;;;;;4771303;30;20047;-83
2021/01/28 18:39:47;;;;;;;18.30;5.60;;;;;;;;;;4790028;29;20058;-82
2021/01/28 18:42:18;;;;;;;11.55;4.15;;;;;;;;;;4796434;29;20063;-83
2021/01/28 18:44:48;;;;;;;10.30;4.60;;;;;;;;;;4787565;29;20059;-84
2021/01/28 18:47:19;;;;;;;12.63;4.00;;;;;;;;;;4797002;29;20059;-84
2021/01/28 18:49:49;;;;;;;10.57;3.80;;;;;;;;;;4801374;29;20055;-83
2021/01/28 18:52:19;;;;;;;16.88;4.47;;;;;;;;;;4792605;29;20070;-83
2021/01/28 18:54:51;;;;;;;14.35;4.25;;;;;;;;;;4803408;29;20069;-82
2021/01/28 18:57:20;;;;;;;13.90;6.57;;;;;;;;;;4801267;24;20055;-81
2021/01/28 18:59:55;;;;;;;11.93;3.83;;;;;;;;;;4762921;30;20070;-83
2021/01/28 19:02:26;;;;;;;15.75;5.10;;;;;;;;;;4758789;30;20072;-83
2021/01/28 19:05:00;;;;;;;17.25;5.43;;;;;;;;;;4788480;29;20059;-83
2021/01/28 19:07:31;;;;;;;11.07;6.03;;;;;;;;;;4786159;29;20063;-85
2021/01/28 19:10:04;;;;;;;18.15;5.43;;;11.40;99.90;;;;;;4790842;29;20415;-83
2021/01/28 19:12:35;;;;;;;21.77;7.05;;;;;;;;;;4777320;29;20070;-83
2021/01/28 19:15:06;;;;;;;27.15;8.10;;;;;;;;;;4775974;30;20055;-83
2021/01/28 19:17:37;;;;;;;35.50;9.15;;;;;;;;;;4788727;29;20574;-82
2021/01/28 19:20:08;;;;;;;24.63;9.80;;;;;;;;;;4758829;29;20051;-82
2021/01/28 19:22:37;;;;;;;28.92;6.90;;;;;;;;;;4773027;30;20071;-84
2021/01/28 19:25:09;;;;;;;25.75;7.55;;;;;;;;;;4755417;30;20066;-83
2021/01/28 19:27:36;;;;;;;44.45;10.98;;;;;;;;;;4767812;30;20047;-84
2021/01/28 19:30:13;;;;;;;24.98;7.88;;;10.80;99.90;;;;;;4772064;30;20063;-81
2021/01/28 19:32:45;;;;;;;28.35;10.07;;;;;;;;;;4770825;30;20055;-83
2021/01/28 19:35:21;;;;;;;50.03;9.82;;;11.10;99.90;;;;;;4793533;29;20062;-84
2021/01/28 19:37:53;;;;;;;39.25;9.70;;;;;;;;;;4781722;29;20496;-83
2021/01/28 19:40:22;;;;;;;51.15;11.57;;;;;;;;;;4787924;30;20063;-83
2021/01/28 19:42:51;;;;;;;57.15;10.23;;;;;;;;;;4795735;29;20065;-83
2021/01/28 19:45:24;;;;;;;35.20;7.70;;;11.00;99.90;;;;;;4797389;30;20090;-82
2021/01/28 19:47:56;;;;;;;32.30;7.85;;;;;;;;;;4781071;30;20063;-81
2021/01/28 19:50:30;;;;;;;48.25;10.00;;;;;;;;;;4778694;30;20059;-87
2021/01/28 19:53:23;;;;;;;40.70;10.65;;;;;;;;;;4762961;29;20046;-83
2021/01/28 19:55:55;;;;;;;35.20;11.98;;;11.30;99.90;;;;;;4771286;29;20062;-81
2021/01/28 19:58:26;;;;;;;38.53;8.80;;;;;;;;;;4776941;29;20063;-81
2021/01/28 20:01:01;;;;;;;33.38;8.77;;;;;;;;;;4779286;30;20067;-83
2021/01/28 20:03:37;;;;;;;44.78;11.65;;;11.00;99.90;;;;;;4790925;29;20066;-82
2021/01/28 20:06:09;;;;;;;43.28;10.35;;;;;;;;;;4760888;30;20074;-82
2021/01/28 20:08:44;;;;;;;23.27;6.78;;;11.00;99.90;;;;;;4766428;30;20062;-80
2021/01/28 20:11:12;;;;;;;38.70;11.02;;;;;;;;;;4760678;30;20059;-82
2021/01/28 20:13:46;;;;;;;28.30;8.70;;;11.30;99.90;;;;;;4760547;30;20065;-82
2021/01/28 20:16:32;;;;;;;29.13;8.88;;;11.00;99.90;;;;;;4799198;29;20062;-82
2021/01/28 20:19:07;;;;;;;49.10;10.30;;;;;;;;;;4775549;30;20059;-83
2021/01/28 20:21:37;;;;;;;31.02;9.25;;;;;;;;;;4791435;29;20054;-82
2021/01/28 20:24:07;;;;;;;26.67;8.15;;;11.10;99.90;;;;;;4757448;29;20735;-81
2021/01/28 20:26:38;;;;;;;29.63;8.57;;;;;;;;;;4769369;30;20063;-82
2021/01/28 20:29:06;;;;;;;23.85;10.35;;;;;;;;;;4779001;30;20149;-84
2021/01/28 20:31:39;;;;;;;23.55;7.20;;;;;;;;;;4796940;29;20058;-81
2021/01/28 20:34:09;;;;;;;24.95;9.77;;;;;;;;;;4794557;29;20059;-82
2021/01/28 20:36:44;;;;;;;36.42;10.18;;;11.10;99.90;;;;;;4778087;30;20079;-82
2021/01/28 20:39:12;;;;;;;31.75;8.30;;;;;;;;;;4780147;30;20086;-83
2021/01/28 20:41:40;;;;;;;31.48;6.78;;;;;;;;;;4776680;30;20055;-82
2021/01/28 20:44:09;;;;;;;17.73;6.50;;;11.20;99.90;;;;;;4778900;30;20424;-81
2021/01/28 20:47:11;;;;;;;21.85;7.45;;;11.00;99.90;;;;;;4781808;29;20059;-82
2021/01/28 20:49:39;;;;;;;13.32;5.47;;;;;;;;;;4779712;30;20070;-81
2021/01/28 20:52:09;;;;;;;14.90;4.55;;;;;;;;;;4779066;30;20051;-82
2021/01/28 20:54:39;;;;;;;13.23;5.47;;;;;;;;;;4795943;30;20063;-80
2021/01/28 20:57:12;;;;;;;15.02;4.53;;;;;;;;;;4776131;30;20063;-82
2021/01/28 21:00:10;;;;;;;12.38;3.28;;;10.80;99.90;;;;;;4748888;30;20067;-82
2021/01/28 21:02:44;;;;;;;17.00;4.78;;;;;;;;;;4754726;30;20436;-81
2021/01/28 21:05:18;;;;;;;12.73;3.75;;;;;;;;;;4748315;30;20061;-83
2021/01/28 21:07:48;;;;;;;16.20;4.95;;;;;;;;;;4766766;30;20048;-83
2021/01/28 21:10:16;;;;;;;11.52;3.78;;;;;;;;;;4758554;30;20052;-84
2021/01/28 21:12:49;;;;;;;10.90;3.30;;;;;;;;;;4763239;30;20055;-83
2021/01/28 21:15:34;;;;;;;9.75;3.10;;;11.00;99.90;;;;;;4777716;29;20063;-83
2021/01/28 21:18:17;;;;;;;6.35;3.00;;;;;;;;;;4770945;30;20056;-82
2021/01/28 21:20:59;;;;;;;9.48;2.83;;;;;;;;;;4755801;30;20047;-84
2021/01/28 21:23:40;;;;;;;7.22;3.17;;;;;;;;;;4775059;30;20047;-82
2021/01/28 21:26:18;;;;;;;9.00;2.78;;;;;;;;;;4755512;30;20455;-82
2021/01/28 21:28:48;;;;;;;7.97;2.70;;;11.40;99.90;;;;;;4761752;30;20062;-83
2021/01/28 21:31:20;;;;;;;4.35;2.63;;;;;;;;;;4762686;30;20072;-83
2021/01/28 21:33:54;;;;;;;7.32;3.10;;;;;;;;;;4748131;30;20051;-82
2021/01/28 21:36:31;;;;;;;1.73;1.55;;;;;;;;;;4737832;30;20056;-83
2021/01/28 21:39:01;;;;;;;5.18;3.05;;;;;;;;;;4763376;30;20135;-82
2021/01/28 21:41:31;;;;;;;4.60;1.60;;;;;;;;;;4747485;30;20063;-83
2021/01/28 21:43:59;;;;;;;9.25;1.90;;;;;;;;;;4743409;30;20051;-84
2021/01/28 21:46:59;;;;;;;4.30;1.42;;;;;;;;;;4775989;30;20051;-82
2021/01/28 21:49:30;;;;;;;11.18;1.92;;;;;;;;;;4743808;30;20058;-84
2021/01/28 21:52:06;;;;;;;4.30;1.85;;;;;;;;;;4754948;30;20417;-83
2021/01/28 21:54:36;;;;;;;10.38;1.60;;;;;;;;;;4747004;30;20062;-82
2021/01/28 21:57:15;;;;;;;5.80;2.42;;;;;;;;;;4741189;30;20060;-82
2021/01/28 21:59:44;;;;;;;6.53;3.25;;;;;;;;;;4788224;29;20066;-83
2021/01/28 22:02:12;;;;;;;5.22;2.88;;;;;;;;;;4772256;29;20579;-81
2021/01/28 22:04:43;;;;;;;6.65;1.95;;;;;;;;;;4790696;29;20070;-80
2021/01/28 22:07:17;;;;;;;5.57;2.65;;;;;;;;;;4778008;30;20731;-82
2021/01/28 22:09:55;;;;;;;5.68;2.05;;;;;;;;;;4761316;30;20064;-82
2021/01/28 22:12:27;;;;;;;3.25;2.00;;;;;;;;;;4790068;30;20067;-82
2021/01/28 22:14:55;;;;;;;5.93;2.03;;;;;;;;;;4779659;30;20059;-83
2021/01/28 22:17:22;;;;;;;8.48;2.08;;;;;;;;;;4781726;29;20059;-81
2021/01/28 22:19:54;;;;;;;9.15;1.77;;;;;;;;;;4761155;30;20055;-83
2021/01/28 22:22:22;;;;;;;5.68;2.53;;;;;;;;;;4750355;30;20052;-81
2021/01/28 22:24:52;;;;;;;3.75;1.50;;;;;;;;;;4770229;30;20419;-82
2021/01/28 22:27:21;;;;;;;3.22;1.50;;;;;;;;;;4751504;30;20064;-82
2021/01/28 22:29:51;;;;;;;2.95;1.70;;;11.10;99.90;;;;;;4788611;30;20066;-82
2021/01/28 22:32:21;;;;;;;1.67;1.48;;;;;;;;;;4772418;30;20063;-81
2021/01/28 22:34:56;;;;;;;2.35;1.40;;;;;;;;;;4773552;30;20059;-82
2021/01/28 22:37:26;;;;;;;1.52;1.48;;;;;;;;;;4773363;30;20051;-82
2021/01/28 22:39:54;;;;;;;5.57;2.30;;;;;;;;;;4774489;30;20062;-81
2021/01/28 22:42:24;;;;;;;3.95;1.70;;;;;;;;;;4779206;30;20055;-82
2021/01/28 22:44:52;;;;;;;2.65;1.90;;;;;;;;;;4763152;30;20063;-82
2021/01/28 22:47:25;;;;;;;3.50;1.50;;;;;;;;;;4774869;30;20051;-83
2021/01/28 22:49:53;;;;;;;4.15;2.03;;;;;;;;;;4772343;29;20066;-84
2021/01/28 22:52:29;;;;;;;1.60;1.42;;;;;;;;;;4786025;30;20063;-82
2021/01/28 22:55:01;;;;;;;3.97;1.77;;;;;;;;;;4795281;29;20070;-83
2021/01/28 22:57:32;;;;;;;1.38;1.27;;;;;;;;;;4784934;29;20098;-82
2021/01/28 23:00:13;;;;;;;7.30;2.13;;;11.10;99.90;;;;;;4795993;29;20082;-83
2021/01/28 23:02:41;;;;;;;3.28;1.92;;;;;;;;;;4772120;30;20296;-81
2021/01/28 23:05:10;;;;;;;1.20;1.10;;;;;;;;;;4771166;30;20412;-83